sensor_id;sensor_type;location;lat;lon;timestamp;P1;durP1;ratioP1;P2;durP2;ratioP2
23716;SDS011;22094;52.130;5.598;2022-12-18T00:00:41;111.50;;;41.38;;
23716;SDS011;22094;52.130;5.598;2022-12-18T00:03:08;109.65;;;39.38;;
23716;SDS011;22094;52.130;5.598;2022-12-18T00:05:33;108.95;;;39.85;;
23716;SDS011;22094;52.130;5.598;2022-12-18T00:07:59;123.35;;;41.92;;
23716;SDS011;22094;52.130;5.598;2022-12-18T00:10:24;112.78;;;39.63;;
23716;SDS011;22094;52.130;5.598;2022-12-18T00:12:50;109.43;;;39.75;;
23716;SDS011;22094;52.130;5.598;2022-12-18T00:15:15;110.10;;;39.47;;
23716;SDS011;22094;52.130;5.598;2022-12-18T00:17:41;114.43;;;38.90;;
23716;SDS011;22094;52.130;5.598;2022-12-18T00:20:07;120.13;;;42.25;;
23716;SDS011;22094;52.130;5.598;2022-12-18T00:22:33;112.97;;;39.95;;
23716;SDS011;22094;52.130;5.598;2022-12-18T00:24:58;119.72;;;40.97;;
23716;SDS011;22094;52.130;5.598;2022-12-18T00:27:24;118.40;;;40.03;;
23716;SDS011;22094;52.130;5.598;2022-12-18T00:29:50;112.55;;;40.33;;
23716;SDS011;22094;52.130;5.598;2022-12-18T00:32:16;116.70;;;40.25;;
23716;SDS011;22094;52.130;5.598;2022-12-18T00:34:41;116.72;;;39.65;;
23716;SDS011;22094;52.130;5.598;2022-12-18T00:37:07;106.78;;;39.03;;
23716;SDS011;22094;52.130;5.598;2022-12-18T00:39:32;108.93;;;39.67;;
23716;SDS011;22094;52.130;5.598;2022-12-18T00:41:58;119.65;;;40.47;;
23716;SDS011;22094;52.130;5.598;2022-12-18T00:44:56;108.88;;;38.08;;
23716;SDS011;22094;52.130;5.598;2022-12-18T00:47:21;113.97;;;38.78;;
23716;SDS011;22094;52.130;5.598;2022-12-18T00:49:47;112.63;;;38.58;;
23716;SDS011;22094;52.130;5.598;2022-12-18T00:52:12;101.15;;;37.30;;
23716;SDS011;22094;52.130;5.598;2022-12-18T00:54:38;109.40;;;37.80;;
23716;SDS011;22094;52.130;5.598;2022-12-18T00:57:03;101.72;;;37.22;;
23716;SDS011;22094;52.130;5.598;2022-12-18T00:59:29;98.97;;;37.30;;
23716;SDS011;22094;52.130;5.598;2022-12-18T01:01:55;98.20;;;36.70;;
23716;SDS011;22094;52.130;5.598;2022-12-18T01:04:20;94.18;;;35.78;;
23716;SDS011;22094;52.130;5.598;2022-12-18T01:06:46;101.35;;;35.50;;
23716;SDS011;22094;52.130;5.598;2022-12-18T01:09:12;100.30;;;36.75;;
23716;SDS011;22094;52.130;5.598;2022-12-18T01:11:37;105.03;;;37.35;;
23716;SDS011;22094;52.130;5.598;2022-12-18T01:14:03;94.47;;;37.10;;
23716;SDS011;22094;52.130;5.598;2022-12-18T01:16:29;97.72;;;36.10;;
23716;SDS011;22094;52.130;5.598;2022-12-18T01:18:54;101.05;;;36.85;;
23716;SDS011;22094;52.130;5.598;2022-12-18T01:21:20;97.90;;;35.40;;
23716;SDS011;22094;52.130;5.598;2022-12-18T01:23:50;95.75;;;35.00;;
23716;SDS011;22094;52.130;5.598;2022-12-18T01:26:17;96.13;;;34.80;;
23716;SDS011;22094;52.130;5.598;2022-12-18T01:28:43;86.03;;;32.72;;
23716;SDS011;22094;52.130;5.598;2022-12-18T01:31:21;88.35;;;32.58;;
23716;SDS011;22094;52.130;5.598;2022-12-18T01:33:59;88.88;;;32.58;;
23716;SDS011;22094;52.130;5.598;2022-12-18T01:36:33;92.70;;;33.90;;
23716;SDS011;22094;52.130;5.598;2022-12-18T01:39:09;83.15;;;32.65;;
23716;SDS011;22094;52.130;5.598;2022-12-18T01:41:37;82.40;;;31.88;;
23716;SDS011;22094;52.130;5.598;2022-12-18T01:47:29;83.63;;;31.30;;
23716;SDS011;22094;52.130;5.598;2022-12-18T01:50:06;83.82;;;32.15;;
23716;SDS011;22094;52.130;5.598;2022-12-18T01:52:35;89.40;;;31.83;;
23716;SDS011;22094;52.130;5.598;2022-12-18T01:55:07;83.05;;;32.00;;
23716;SDS011;22094;52.130;5.598;2022-12-18T01:57:37;82.40;;;32.50;;
23716;SDS011;22094;52.130;5.598;2022-12-18T02:00:06;84.10;;;32.67;;
23716;SDS011;22094;52.130;5.598;2022-12-18T02:02:37;85.85;;;31.83;;
23716;SDS011;22094;52.130;5.598;2022-12-18T02:05:05;87.88;;;33.05;;
23716;SDS011;22094;52.130;5.598;2022-12-18T02:07:36;91.18;;;34.47;;
23716;SDS011;22094;52.130;5.598;2022-12-18T02:10:31;86.75;;;32.47;;
23716;SDS011;22094;52.130;5.598;2022-12-18T02:13:10;82.88;;;31.45;;
23716;SDS011;22094;52.130;5.598;2022-12-18T02:15:44;76.55;;;30.50;;
23716;SDS011;22094;52.130;5.598;2022-12-18T02:18:27;82.13;;;31.83;;
23716;SDS011;22094;52.130;5.598;2022-12-18T02:26:34;78.00;;;30.30;;
23716;SDS011;22094;52.130;5.598;2022-12-18T02:29:10;84.43;;;31.02;;
23716;SDS011;22094;52.130;5.598;2022-12-18T02:31:41;78.70;;;31.40;;
23716;SDS011;22094;52.130;5.598;2022-12-18T02:34:10;75.78;;;28.10;;
23716;SDS011;22094;52.130;5.598;2022-12-18T02:36:38;71.90;;;29.58;;
23716;SDS011;22094;52.130;5.598;2022-12-18T02:39:05;78.20;;;29.92;;
23716;SDS011;22094;52.130;5.598;2022-12-18T02:41:36;86.25;;;32.42;;
23716;SDS011;22094;52.130;5.598;2022-12-18T02:44:07;83.13;;;32.72;;
23716;SDS011;22094;52.130;5.598;2022-12-18T02:46:39;83.15;;;30.48;;
23716;SDS011;22094;52.130;5.598;2022-12-18T02:56:58;82.72;;;31.13;;
23716;SDS011;22094;52.130;5.598;2022-12-18T03:02:40;78.10;;;30.63;;
23716;SDS011;22094;52.130;5.598;2022-12-18T03:07:44;79.15;;;30.17;;
23716;SDS011;22094;52.130;5.598;2022-12-18T03:10:16;74.90;;;28.55;;
23716;SDS011;22094;52.130;5.598;2022-12-18T03:12:47;67.72;;;27.98;;
23716;SDS011;22094;52.130;5.598;2022-12-18T03:15:21;75.45;;;30.33;;
23716;SDS011;22094;52.130;5.598;2022-12-18T03:18:06;73.43;;;28.75;;
23716;SDS011;22094;52.130;5.598;2022-12-18T03:20:38;69.22;;;26.75;;
23716;SDS011;22094;52.130;5.598;2022-12-18T03:23:09;65.80;;;27.88;;
23716;SDS011;22094;52.130;5.598;2022-12-18T03:25:39;69.70;;;27.27;;
23716;SDS011;22094;52.130;5.598;2022-12-18T03:28:08;65.90;;;27.23;;
23716;SDS011;22094;52.130;5.598;2022-12-18T03:30:38;58.28;;;26.05;;
23716;SDS011;22094;52.130;5.598;2022-12-18T03:35:52;64.38;;;26.70;;
23716;SDS011;22094;52.130;5.598;2022-12-18T03:38:18;61.05;;;26.40;;
23716;SDS011;22094;52.130;5.598;2022-12-18T03:40:52;59.78;;;26.27;;
23716;SDS011;22094;52.130;5.598;2022-12-18T03:43:49;63.60;;;27.02;;
23716;SDS011;22094;52.130;5.598;2022-12-18T03:46:24;63.00;;;25.95;;
23716;SDS011;22094;52.130;5.598;2022-12-18T03:49:08;63.47;;;27.35;;
23716;SDS011;22094;52.130;5.598;2022-12-18T03:51:40;58.05;;;25.75;;
23716;SDS011;22094;52.130;5.598;2022-12-18T03:54:15;62.53;;;25.80;;
23716;SDS011;22094;52.130;5.598;2022-12-18T03:56:43;59.33;;;26.30;;
23716;SDS011;22094;52.130;5.598;2022-12-18T03:59:16;57.85;;;24.02;;
23716;SDS011;22094;52.130;5.598;2022-12-18T04:01:47;61.92;;;26.27;;
23716;SDS011;22094;52.130;5.598;2022-12-18T04:04:16;63.50;;;26.17;;
23716;SDS011;22094;52.130;5.598;2022-12-18T04:06:43;60.05;;;26.33;;
23716;SDS011;22094;52.130;5.598;2022-12-18T04:09:12;65.45;;;27.08;;
23716;SDS011;22094;52.130;5.598;2022-12-18T04:11:39;62.72;;;25.42;;
23716;SDS011;22094;52.130;5.598;2022-12-18T04:14:06;67.53;;;27.05;;
23716;SDS011;22094;52.130;5.598;2022-12-18T04:16:31;64.47;;;26.90;;
23716;SDS011;22094;52.130;5.598;2022-12-18T04:18:57;61.88;;;27.20;;
23716;SDS011;22094;52.130;5.598;2022-12-18T04:21:22;61.90;;;25.58;;
23716;SDS011;22094;52.130;5.598;2022-12-18T04:23:48;62.97;;;24.55;;
23716;SDS011;22094;52.130;5.598;2022-12-18T04:26:14;62.22;;;25.08;;
23716;SDS011;22094;52.130;5.598;2022-12-18T04:28:39;52.50;;;23.70;;
23716;SDS011;22094;52.130;5.598;2022-12-18T04:31:05;47.72;;;22.23;;
23716;SDS011;22094;52.130;5.598;2022-12-18T04:33:30;52.50;;;23.33;;
23716;SDS011;22094;52.130;5.598;2022-12-18T04:35:56;53.35;;;22.52;;
23716;SDS011;22094;52.130;5.598;2022-12-18T04:38:22;55.42;;;23.52;;
23716;SDS011;22094;52.130;5.598;2022-12-18T04:40:47;49.22;;;22.67;;
23716;SDS011;22094;52.130;5.598;2022-12-18T04:43:13;52.80;;;23.80;;
23716;SDS011;22094;52.130;5.598;2022-12-18T04:45:38;51.90;;;22.80;;
23716;SDS011;22094;52.130;5.598;2022-12-18T04:48:04;51.28;;;22.00;;
23716;SDS011;22094;52.130;5.598;2022-12-18T04:50:30;48.53;;;22.48;;
23716;SDS011;22094;52.130;5.598;2022-12-18T04:52:55;49.10;;;22.08;;
23716;SDS011;22094;52.130;5.598;2022-12-18T04:55:21;46.83;;;21.77;;
23716;SDS011;22094;52.130;5.598;2022-12-18T04:57:49;44.58;;;20.83;;
23716;SDS011;22094;52.130;5.598;2022-12-18T05:00:15;49.80;;;21.38;;
23716;SDS011;22094;52.130;5.598;2022-12-18T05:02:41;41.28;;;19.83;;
23716;SDS011;22094;52.130;5.598;2022-12-18T05:05:06;43.83;;;20.73;;
23716;SDS011;22094;52.130;5.598;2022-12-18T05:07:33;43.28;;;20.00;;
23716;SDS011;22094;52.130;5.598;2022-12-18T05:10:00;44.30;;;21.15;;
23716;SDS011;22094;52.130;5.598;2022-12-18T05:12:26;43.83;;;20.35;;
23716;SDS011;22094;52.130;5.598;2022-12-18T05:14:52;44.40;;;19.80;;
23716;SDS011;22094;52.130;5.598;2022-12-18T05:17:17;44.15;;;20.98;;
23716;SDS011;22094;52.130;5.598;2022-12-18T05:19:43;46.28;;;21.25;;
23716;SDS011;22094;52.130;5.598;2022-12-18T05:22:09;42.67;;;19.88;;
23716;SDS011;22094;52.130;5.598;2022-12-18T05:24:36;44.83;;;21.17;;
23716;SDS011;22094;52.130;5.598;2022-12-18T05:27:01;48.53;;;21.42;;
23716;SDS011;22094;52.130;5.598;2022-12-18T05:29:27;43.63;;;20.65;;
23716;SDS011;22094;52.130;5.598;2022-12-18T05:31:53;45.97;;;22.02;;
23716;SDS011;22094;52.130;5.598;2022-12-18T05:34:18;39.67;;;20.02;;
23716;SDS011;22094;52.130;5.598;2022-12-18T05:36:44;42.50;;;20.20;;
23716;SDS011;22094;52.130;5.598;2022-12-18T05:39:09;42.97;;;20.98;;
23716;SDS011;22094;52.130;5.598;2022-12-18T05:41:35;40.22;;;19.45;;
23716;SDS011;22094;52.130;5.598;2022-12-18T05:44:01;43.72;;;20.20;;
23716;SDS011;22094;52.130;5.598;2022-12-18T05:46:26;45.70;;;20.02;;
23716;SDS011;22094;52.130;5.598;2022-12-18T05:48:52;43.17;;;19.23;;
23716;SDS011;22094;52.130;5.598;2022-12-18T05:51:19;38.63;;;18.80;;
23716;SDS011;22094;52.130;5.598;2022-12-18T05:53:46;40.65;;;20.15;;
23716;SDS011;22094;52.130;5.598;2022-12-18T05:56:16;41.53;;;19.73;;
23716;SDS011;22094;52.130;5.598;2022-12-18T05:58:43;39.10;;;18.63;;
23716;SDS011;22094;52.130;5.598;2022-12-18T06:01:16;35.65;;;18.33;;
23716;SDS011;22094;52.130;5.598;2022-12-18T06:03:43;35.45;;;19.13;;
23716;SDS011;22094;52.130;5.598;2022-12-18T06:06:12;38.38;;;18.70;;
23716;SDS011;22094;52.130;5.598;2022-12-18T06:08:42;34.35;;;18.38;;
23716;SDS011;22094;52.130;5.598;2022-12-18T06:11:07;36.78;;;19.27;;
23716;SDS011;22094;52.130;5.598;2022-12-18T06:13:33;40.65;;;18.67;;
23716;SDS011;22094;52.130;5.598;2022-12-18T06:16:01;37.90;;;18.52;;
23716;SDS011;22094;52.130;5.598;2022-12-18T06:18:28;39.95;;;19.75;;
23716;SDS011;22094;52.130;5.598;2022-12-18T06:20:54;37.92;;;19.13;;
23716;SDS011;22094;52.130;5.598;2022-12-18T06:23:21;39.63;;;17.98;;
23716;SDS011;22094;52.130;5.598;2022-12-18T06:25:46;36.88;;;18.33;;
23716;SDS011;22094;52.130;5.598;2022-12-18T06:28:12;40.05;;;19.17;;
23716;SDS011;22094;52.130;5.598;2022-12-18T06:30:37;37.47;;;18.63;;
23716;SDS011;22094;52.130;5.598;2022-12-18T06:33:03;37.83;;;19.13;;
23716;SDS011;22094;52.130;5.598;2022-12-18T06:35:28;39.10;;;19.67;;
23716;SDS011;22094;52.130;5.598;2022-12-18T06:37:54;39.53;;;18.95;;
23716;SDS011;22094;52.130;5.598;2022-12-18T06:40:20;38.80;;;18.83;;
23716;SDS011;22094;52.130;5.598;2022-12-18T06:42:45;34.53;;;17.98;;
23716;SDS011;22094;52.130;5.598;2022-12-18T06:45:11;36.75;;;17.90;;
23716;SDS011;22094;52.130;5.598;2022-12-18T06:47:39;36.50;;;17.88;;
23716;SDS011;22094;52.130;5.598;2022-12-18T06:50:05;36.95;;;18.50;;
23716;SDS011;22094;52.130;5.598;2022-12-18T06:52:31;36.55;;;19.13;;
23716;SDS011;22094;52.130;5.598;2022-12-18T06:54:57;34.20;;;17.85;;
23716;SDS011;22094;52.130;5.598;2022-12-18T06:57:23;38.47;;;18.77;;
23716;SDS011;22094;52.130;5.598;2022-12-18T06:59:48;37.67;;;19.33;;
23716;SDS011;22094;52.130;5.598;2022-12-18T07:02:14;34.72;;;17.83;;
23716;SDS011;22094;52.130;5.598;2022-12-18T07:04:39;34.55;;;18.65;;
23716;SDS011;22094;52.130;5.598;2022-12-18T07:07:05;41.10;;;20.15;;
23716;SDS011;22094;52.130;5.598;2022-12-18T07:09:31;37.58;;;19.23;;
23716;SDS011;22094;52.130;5.598;2022-12-18T07:11:56;37.38;;;19.52;;
23716;SDS011;22094;52.130;5.598;2022-12-18T07:14:22;40.33;;;18.80;;
23716;SDS011;22094;52.130;5.598;2022-12-18T07:16:48;37.20;;;19.90;;
23716;SDS011;22094;52.130;5.598;2022-12-18T07:19:13;37.63;;;20.08;;
23716;SDS011;22094;52.130;5.598;2022-12-18T07:21:39;41.85;;;19.35;;
23716;SDS011;22094;52.130;5.598;2022-12-18T07:24:05;44.92;;;21.13;;
23716;SDS011;22094;52.130;5.598;2022-12-18T07:26:31;38.63;;;20.58;;
23716;SDS011;22094;52.130;5.598;2022-12-18T07:28:57;41.45;;;20.30;;
23716;SDS011;22094;52.130;5.598;2022-12-18T07:31:23;41.92;;;20.58;;
23716;SDS011;22094;52.130;5.598;2022-12-18T07:33:49;37.67;;;19.48;;
23716;SDS011;22094;52.130;5.598;2022-12-18T07:36:16;36.35;;;19.67;;
23716;SDS011;22094;52.130;5.598;2022-12-18T07:38:42;35.78;;;18.63;;
23716;SDS011;22094;52.130;5.598;2022-12-18T07:41:11;46.30;;;20.63;;
23716;SDS011;22094;52.130;5.598;2022-12-18T07:43:38;39.25;;;20.15;;
23716;SDS011;22094;52.130;5.598;2022-12-18T07:46:04;40.80;;;20.13;;
23716;SDS011;22094;52.130;5.598;2022-12-18T07:48:31;37.50;;;20.20;;
23716;SDS011;22094;52.130;5.598;2022-12-18T07:51:00;36.67;;;19.92;;
23716;SDS011;22094;52.130;5.598;2022-12-18T07:53:26;44.25;;;21.58;;
23716;SDS011;22094;52.130;5.598;2022-12-18T07:55:58;42.75;;;22.13;;
23716;SDS011;22094;52.130;5.598;2022-12-18T07:58:27;42.33;;;22.95;;
23716;SDS011;22094;52.130;5.598;2022-12-18T08:00:53;44.35;;;22.50;;
23716;SDS011;22094;52.130;5.598;2022-12-18T08:03:18;45.15;;;23.88;;
23716;SDS011;22094;52.130;5.598;2022-12-18T08:05:44;48.13;;;24.30;;
23716;SDS011;22094;52.130;5.598;2022-12-18T08:08:10;42.45;;;23.38;;
23716;SDS011;22094;52.130;5.598;2022-12-18T08:10:37;47.40;;;23.15;;
23716;SDS011;22094;52.130;5.598;2022-12-18T08:13:02;42.63;;;22.85;;
23716;SDS011;22094;52.130;5.598;2022-12-18T08:15:28;45.50;;;24.10;;
23716;SDS011;22094;52.130;5.598;2022-12-18T08:17:56;44.53;;;23.45;;
23716;SDS011;22094;52.130;5.598;2022-12-18T08:20:22;42.97;;;23.25;;
23716;SDS011;22094;52.130;5.598;2022-12-18T08:22:47;44.95;;;23.55;;
23716;SDS011;22094;52.130;5.598;2022-12-18T08:25:13;46.15;;;25.40;;
23716;SDS011;22094;52.130;5.598;2022-12-18T08:27:39;42.80;;;24.02;;
23716;SDS011;22094;52.130;5.598;2022-12-18T08:30:04;39.97;;;22.58;;
23716;SDS011;22094;52.130;5.598;2022-12-18T08:32:31;41.85;;;22.77;;
23716;SDS011;22094;52.130;5.598;2022-12-18T08:34:57;39.92;;;22.90;;
23716;SDS011;22094;52.130;5.598;2022-12-18T08:37:23;41.58;;;21.42;;
23716;SDS011;22094;52.130;5.598;2022-12-18T08:39:49;47.65;;;24.77;;
23716;SDS011;22094;52.130;5.598;2022-12-18T08:42:14;42.35;;;21.98;;
23716;SDS011;22094;52.130;5.598;2022-12-18T08:44:58;43.15;;;22.55;;
23716;SDS011;22094;52.130;5.598;2022-12-18T08:47:24;41.30;;;22.58;;
23716;SDS011;22094;52.130;5.598;2022-12-18T08:49:51;41.78;;;21.25;;
23716;SDS011;22094;52.130;5.598;2022-12-18T08:52:16;42.40;;;22.20;;
23716;SDS011;22094;52.130;5.598;2022-12-18T08:54:42;38.80;;;20.58;;
23716;SDS011;22094;52.130;5.598;2022-12-18T08:57:08;39.38;;;21.85;;
23716;SDS011;22094;52.130;5.598;2022-12-18T08:59:33;34.78;;;20.90;;
23716;SDS011;22094;52.130;5.598;2022-12-18T09:01:59;34.67;;;19.67;;
23716;SDS011;22094;52.130;5.598;2022-12-18T09:04:25;51.58;;;28.30;;
23716;SDS011;22094;52.130;5.598;2022-12-18T09:06:51;40.58;;;23.52;;
23716;SDS011;22094;52.130;5.598;2022-12-18T09:09:20;35.50;;;21.15;;
23716;SDS011;22094;52.130;5.598;2022-12-18T09:11:46;31.88;;;20.02;;
23716;SDS011;22094;52.130;5.598;2022-12-18T09:14:11;34.80;;;20.45;;
23716;SDS011;22094;52.130;5.598;2022-12-18T09:16:37;37.72;;;21.45;;
23716;SDS011;22094;52.130;5.598;2022-12-18T09:19:03;35.17;;;20.27;;
23716;SDS011;22094;52.130;5.598;2022-12-18T09:21:33;36.45;;;20.85;;
23716;SDS011;22094;52.130;5.598;2022-12-18T09:24:04;33.55;;;19.58;;
23716;SDS011;22094;52.130;5.598;2022-12-18T09:26:30;31.88;;;19.30;;
23716;SDS011;22094;52.130;5.598;2022-12-18T09:28:56;35.65;;;19.95;;
23716;SDS011;22094;52.130;5.598;2022-12-18T09:31:22;39.40;;;21.77;;
23716;SDS011;22094;52.130;5.598;2022-12-18T09:33:49;38.38;;;23.35;;
23716;SDS011;22094;52.130;5.598;2022-12-18T09:36:15;35.08;;;20.55;;
23716;SDS011;22094;52.130;5.598;2022-12-18T09:38:42;44.08;;;26.58;;
23716;SDS011;22094;52.130;5.598;2022-12-18T09:43:53;31.08;;;19.02;;
23716;SDS011;22094;52.130;5.598;2022-12-18T09:46:23;31.80;;;18.30;;
23716;SDS011;22094;52.130;5.598;2022-12-18T09:48:54;32.92;;;19.80;;
23716;SDS011;22094;52.130;5.598;2022-12-18T09:51:28;33.55;;;19.55;;
23716;SDS011;22094;52.130;5.598;2022-12-18T09:54:00;30.75;;;18.13;;
23716;SDS011;22094;52.130;5.598;2022-12-18T09:56:31;30.60;;;17.83;;
23716;SDS011;22094;52.130;5.598;2022-12-18T09:59:02;30.63;;;17.67;;
23716;SDS011;22094;52.130;5.598;2022-12-18T10:01:29;32.33;;;17.83;;
23716;SDS011;22094;52.130;5.598;2022-12-18T10:03:56;31.45;;;16.75;;
23716;SDS011;22094;52.130;5.598;2022-12-18T10:12:04;26.10;;;16.33;;
23716;SDS011;22094;52.130;5.598;2022-12-18T10:14:42;28.42;;;16.90;;
23716;SDS011;22094;52.130;5.598;2022-12-18T10:20:25;25.70;;;15.63;;
23716;SDS011;22094;52.130;5.598;2022-12-18T10:25:50;31.67;;;19.17;;
23716;SDS011;22094;52.130;5.598;2022-12-18T10:28:21;26.38;;;15.80;;
23716;SDS011;22094;52.130;5.598;2022-12-18T10:30:48;25.63;;;16.65;;
23716;SDS011;22094;52.130;5.598;2022-12-18T10:33:16;28.58;;;16.20;;
23716;SDS011;22094;52.130;5.598;2022-12-18T10:35:43;32.63;;;19.77;;
23716;SDS011;22094;52.130;5.598;2022-12-18T10:43:21;23.90;;;15.60;;
23716;SDS011;22094;52.130;5.598;2022-12-18T10:51:19;25.52;;;15.13;;
23716;SDS011;22094;52.130;5.598;2022-12-18T10:54:05;24.77;;;15.02;;
23716;SDS011;22094;52.130;5.598;2022-12-18T10:56:47;27.73;;;16.35;;
23716;SDS011;22094;52.130;5.598;2022-12-18T10:59:14;25.25;;;15.80;;
23716;SDS011;22094;52.130;5.598;2022-12-18T11:01:45;25.63;;;16.20;;
23716;SDS011;22094;52.130;5.598;2022-12-18T11:04:27;26.80;;;15.68;;
23716;SDS011;22094;52.130;5.598;2022-12-18T11:09:31;26.90;;;16.20;;
23716;SDS011;22094;52.130;5.598;2022-12-18T11:11:59;30.67;;;18.08;;
23716;SDS011;22094;52.130;5.598;2022-12-18T11:14:32;29.25;;;19.38;;
23716;SDS011;22094;52.130;5.598;2022-12-18T11:17:16;25.88;;;16.20;;
23716;SDS011;22094;52.130;5.598;2022-12-18T11:19:54;27.70;;;16.30;;
23716;SDS011;22094;52.130;5.598;2022-12-18T11:22:31;26.00;;;16.30;;
23716;SDS011;22094;52.130;5.598;2022-12-18T11:25:02;27.27;;;16.75;;
23716;SDS011;22094;52.130;5.598;2022-12-18T11:27:31;36.60;;;20.73;;
23716;SDS011;22094;52.130;5.598;2022-12-18T11:32:59;32.90;;;21.20;;
23716;SDS011;22094;52.130;5.598;2022-12-18T11:41:52;21.02;;;13.25;;
23716;SDS011;22094;52.130;5.598;2022-12-18T11:47:19;22.15;;;14.43;;
23716;SDS011;22094;52.130;5.598;2022-12-18T11:49:54;21.98;;;14.30;;
23716;SDS011;22094;52.130;5.598;2022-12-18T11:52:25;20.42;;;13.88;;
23716;SDS011;22094;52.130;5.598;2022-12-18T11:54:58;21.83;;;14.48;;
23716;SDS011;22094;52.130;5.598;2022-12-18T12:00:24;28.90;;;17.52;;
23716;SDS011;22094;52.130;5.598;2022-12-18T12:03:06;22.55;;;14.13;;
23716;SDS011;22094;52.130;5.598;2022-12-18T12:16:10;25.83;;;17.42;;
23716;SDS011;22094;52.130;5.598;2022-12-18T12:21:20;22.40;;;14.65;;
23716;SDS011;22094;52.130;5.598;2022-12-18T12:24:01;22.85;;;13.40;;
23716;SDS011;22094;52.130;5.598;2022-12-18T12:27:00;29.13;;;17.20;;
23716;SDS011;22094;52.130;5.598;2022-12-18T12:29:48;23.85;;;14.98;;
23716;SDS011;22094;52.130;5.598;2022-12-18T12:32:30;22.13;;;14.20;;
23716;SDS011;22094;52.130;5.598;2022-12-18T12:38:08;22.73;;;13.15;;
23716;SDS011;22094;52.130;5.598;2022-12-18T12:41:13;22.50;;;14.68;;
23716;SDS011;22094;52.130;5.598;2022-12-18T12:43:55;23.05;;;14.43;;
23716;SDS011;22094;52.130;5.598;2022-12-18T12:46:23;22.17;;;14.43;;
23716;SDS011;22094;52.130;5.598;2022-12-18T12:49:01;27.83;;;17.83;;
23716;SDS011;22094;52.130;5.598;2022-12-18T12:51:33;23.73;;;14.85;;
23716;SDS011;22094;52.130;5.598;2022-12-18T12:54:06;27.70;;;16.38;;
23716;SDS011;22094;52.130;5.598;2022-12-18T13:02:28;28.83;;;17.92;;
23716;SDS011;22094;52.130;5.598;2022-12-18T13:10:32;28.52;;;17.98;;
23716;SDS011;22094;52.130;5.598;2022-12-18T13:13:04;27.35;;;16.48;;
23716;SDS011;22094;52.130;5.598;2022-12-18T13:15:38;23.45;;;14.68;;
23716;SDS011;22094;52.130;5.598;2022-12-18T13:20:44;23.38;;;14.68;;
23716;SDS011;22094;52.130;5.598;2022-12-18T13:23:19;21.27;;;13.60;;
23716;SDS011;22094;52.130;5.598;2022-12-18T13:25:44;21.15;;;13.55;;
23716;SDS011;22094;52.130;5.598;2022-12-18T13:28:56;23.52;;;14.68;;
23716;SDS011;22094;52.130;5.598;2022-12-18T13:31:12;26.00;;;15.95;;
23716;SDS011;22094;52.130;5.598;2022-12-18T13:33:43;24.85;;;15.30;;
23716;SDS011;22094;52.130;5.598;2022-12-18T13:38:47;22.55;;;14.07;;
23716;SDS011;22094;52.130;5.598;2022-12-18T13:41:32;26.17;;;15.02;;
23716;SDS011;22094;52.130;5.598;2022-12-18T13:46:58;29.35;;;17.70;;
23716;SDS011;22094;52.130;5.598;2022-12-18T13:51:53;20.77;;;13.85;;
23716;SDS011;22094;52.130;5.598;2022-12-18T13:54:35;27.77;;;14.75;;
23716;SDS011;22094;52.130;5.598;2022-12-18T13:57:04;18.58;;;12.52;;
23716;SDS011;22094;52.130;5.598;2022-12-18T14:02:00;22.23;;;13.93;;
23716;SDS011;22094;52.130;5.598;2022-12-18T14:04:35;20.83;;;12.77;;
23716;SDS011;22094;52.130;5.598;2022-12-18T14:07:34;24.67;;;13.02;;
23716;SDS011;22094;52.130;5.598;2022-12-18T14:10:00;20.63;;;13.48;;
23716;SDS011;22094;52.130;5.598;2022-12-18T14:12:30;23.45;;;13.85;;
23716;SDS011;22094;52.130;5.598;2022-12-18T14:17:51;21.75;;;13.25;;
23716;SDS011;22094;52.130;5.598;2022-12-18T14:20:17;21.13;;;12.90;;
23716;SDS011;22094;52.130;5.598;2022-12-18T14:22:43;22.25;;;13.52;;
23716;SDS011;22094;52.130;5.598;2022-12-18T14:25:21;22.40;;;13.50;;
23716;SDS011;22094;52.130;5.598;2022-12-18T14:27:53;25.15;;;14.50;;
23716;SDS011;22094;52.130;5.598;2022-12-18T14:30:31;23.20;;;13.13;;
23716;SDS011;22094;52.130;5.598;2022-12-18T14:33:01;22.17;;;13.38;;
23716;SDS011;22094;52.130;5.598;2022-12-18T14:35:39;25.67;;;14.52;;
23716;SDS011;22094;52.130;5.598;2022-12-18T14:40:41;20.42;;;13.00;;
23716;SDS011;22094;52.130;5.598;2022-12-18T14:46:01;26.17;;;14.13;;
23716;SDS011;22094;52.130;5.598;2022-12-18T14:48:41;23.30;;;13.80;;
23716;SDS011;22094;52.130;5.598;2022-12-18T14:51:20;21.27;;;13.48;;
23716;SDS011;22094;52.130;5.598;2022-12-18T14:53:48;21.58;;;13.63;;
23716;SDS011;22094;52.130;5.598;2022-12-18T14:56:35;23.75;;;13.85;;
23716;SDS011;22094;52.130;5.598;2022-12-18T14:59:17;25.85;;;14.30;;
23716;SDS011;22094;52.130;5.598;2022-12-18T15:01:54;23.05;;;14.63;;
23716;SDS011;22094;52.130;5.598;2022-12-18T15:07:01;26.65;;;15.07;;
23716;SDS011;22094;52.130;5.598;2022-12-18T15:10:30;22.13;;;13.65;;
23716;SDS011;22094;52.130;5.598;2022-12-18T15:12:42;22.67;;;13.93;;
23716;SDS011;22094;52.130;5.598;2022-12-18T15:17:59;27.13;;;15.23;;
23716;SDS011;22094;52.130;5.598;2022-12-18T15:20:30;38.00;;;18.67;;
23716;SDS011;22094;52.130;5.598;2022-12-18T15:22:57;31.98;;;19.55;;
23716;SDS011;22094;52.130;5.598;2022-12-18T15:25:33;45.55;;;27.20;;
23716;SDS011;22094;52.130;5.598;2022-12-18T15:28:14;29.13;;;18.00;;
23716;SDS011;22094;52.130;5.598;2022-12-18T15:31:02;23.90;;;14.60;;
23716;SDS011;22094;52.130;5.598;2022-12-18T15:33:38;29.80;;;15.93;;
23716;SDS011;22094;52.130;5.598;2022-12-18T15:36:10;23.40;;;13.77;;
23716;SDS011;22094;52.130;5.598;2022-12-18T15:38:39;24.90;;;14.25;;
23716;SDS011;22094;52.130;5.598;2022-12-18T15:41:05;23.40;;;14.43;;
23716;SDS011;22094;52.130;5.598;2022-12-18T15:43:31;21.58;;;14.43;;
23716;SDS011;22094;52.130;5.598;2022-12-18T15:46:08;24.70;;;14.38;;
23716;SDS011;22094;52.130;5.598;2022-12-18T15:48:39;24.65;;;14.80;;
23716;SDS011;22094;52.130;5.598;2022-12-18T15:51:39;27.30;;;14.70;;
23716;SDS011;22094;52.130;5.598;2022-12-18T15:54:00;24.27;;;14.73;;
23716;SDS011;22094;52.130;5.598;2022-12-18T15:56:28;25.95;;;15.70;;
23716;SDS011;22094;52.130;5.598;2022-12-18T15:59:19;36.58;;;21.55;;
23716;SDS011;22094;52.130;5.598;2022-12-18T16:01:46;54.33;;;28.77;;
23716;SDS011;22094;52.130;5.598;2022-12-18T16:04:13;54.63;;;28.70;;
23716;SDS011;22094;52.130;5.598;2022-12-18T16:06:40;30.33;;;18.00;;
23716;SDS011;22094;52.130;5.598;2022-12-18T16:09:06;30.75;;;17.08;;
23716;SDS011;22094;52.130;5.598;2022-12-18T16:11:33;29.35;;;16.00;;
23716;SDS011;22094;52.130;5.598;2022-12-18T16:14:08;31.33;;;17.83;;
23716;SDS011;22094;52.130;5.598;2022-12-18T16:16:39;29.90;;;16.63;;
23716;SDS011;22094;52.130;5.598;2022-12-18T16:19:04;30.38;;;17.90;;
23716;SDS011;22094;52.130;5.598;2022-12-18T16:21:30;27.80;;;16.70;;
23716;SDS011;22094;52.130;5.598;2022-12-18T16:23:55;36.05;;;19.33;;
23716;SDS011;22094;52.130;5.598;2022-12-18T16:26:21;33.05;;;18.42;;
23716;SDS011;22094;52.130;5.598;2022-12-18T16:28:46;28.52;;;17.30;;
23716;SDS011;22094;52.130;5.598;2022-12-18T16:31:12;28.80;;;17.35;;
23716;SDS011;22094;52.130;5.598;2022-12-18T16:33:38;31.10;;;17.67;;
23716;SDS011;22094;52.130;5.598;2022-12-18T16:36:03;26.85;;;15.65;;
23716;SDS011;22094;52.130;5.598;2022-12-18T16:38:29;28.63;;;16.17;;